createdAt,value
2023-05-13T00:08:13.621Z,98.59
2023-05-13T00:18:15.235Z,98.54
2023-05-13T00:28:17.008Z,97.60
2023-05-13T00:38:18.478Z,99.04
2023-05-13T00:48:20.218Z,99.12
2023-05-13T00:58:21.802Z,100.00
2023-05-13T01:08:56.984Z,100.00
2023-05-13T01:19:20.051Z,100.00
2023-05-13T01:29:21.681Z,100.00
2023-05-13T01:39:24.925Z,100.00
2023-05-13T01:49:26.806Z,100.00
2023-05-13T01:59:29.161Z,100.00
2023-05-13T02:09:30.554Z,99.54
2023-05-13T02:19:31.999Z,96.53
2023-05-13T02:29:34.506Z,97.22
2023-05-13T02:39:36.011Z,98.37
2023-05-13T02:49:37.455Z,97.63
2023-05-13T02:59:38.864Z,97.73
2023-05-13T03:09:42.136Z,98.68
2023-05-13T03:19:43.502Z,99.67
2023-05-13T03:29:44.870Z,100.00
2023-05-13T03:39:46.431Z,98.05
2023-05-13T03:49:48.811Z,98.79
2023-05-13T03:59:50.248Z,98.75
2023-05-13T04:09:51.616Z,100.00
2023-05-13T04:19:53.298Z,100.00
2023-05-13T04:29:54.688Z,100.00
2023-05-13T04:39:56.069Z,99.38
2023-05-13T04:49:57.604Z,97.69
2023-05-13T04:59:59.499Z,98.94
2023-05-13T05:10:00.928Z,97.70
2023-05-13T05:20:02.438Z,98.50
2023-05-13T05:30:04.683Z,100.00
2023-05-13T05:40:06.752Z,99.40
2023-05-13T05:50:08.605Z,99.55
2023-05-13T06:00:10.531Z,98.95
2023-05-13T06:10:12.120Z,96.66
2023-05-13T06:20:13.594Z,93.92
2023-05-13T06:30:16.324Z,89.06
2023-05-13T06:40:17.672Z,90.13
2023-05-13T06:50:19.898Z,86.10
2023-05-13T07:00:22.139Z,83.50
2023-05-13T07:10:23.931Z,84.91
2023-05-13T07:20:26.691Z,81.88
2023-05-13T07:30:28.236Z,83.74
2023-05-13T07:40:29.630Z,82.64
2023-05-13T07:50:31.984Z,81.75
2023-05-13T08:00:33.424Z,80.24
2023-05-13T08:10:34.760Z,71.58
2023-05-13T08:20:36.168Z,74.14
2023-05-13T08:30:40.592Z,74.44
2023-05-13T08:40:42.653Z,71.80
2023-05-13T08:50:44.906Z,68.20
2023-05-13T09:00:48.378Z,64.60
2023-05-13T09:10:50.341Z,61.59
2023-05-13T09:20:51.885Z,68.17
2023-05-13T09:30:56.827Z,62.35
2023-05-13T09:41:00.793Z,62.15
2023-05-13T09:51:02.362Z,62.65
2023-05-13T10:01:04.831Z,62.20
2023-05-13T10:11:07.960Z,58.86
2023-05-13T10:21:09.372Z,57.19
2023-05-13T10:31:10.742Z,58.09
2023-05-13T10:41:58.978Z,54.42
2023-05-13T10:52:14.154Z,50.24
2023-05-13T11:02:23.025Z,49.63
2023-05-13T11:12:24.555Z,54.82
2023-05-13T11:22:26.129Z,56.74
2023-05-13T11:32:53.839Z,56.58
2023-05-13T11:42:55.806Z,53.49
2023-05-13T11:52:59.181Z,52.36
2023-05-13T12:03:03.285Z,47.37
2023-05-13T12:13:04.998Z,45.46
2023-05-13T12:23:06.541Z,47.43
2023-05-13T12:33:16.124Z,52.90
2023-05-13T12:43:19.536Z,48.24
2023-05-13T12:53:21.200Z,45.30
2023-05-13T13:03:24.620Z,48.83
2023-05-13T13:13:26.957Z,48.52
2023-05-13T13:23:28.452Z,45.16
2023-05-13T13:33:29.964Z,43.28
2023-05-13T13:43:31.448Z,42.24
2023-05-13T13:53:32.948Z,44.17
2023-05-13T14:03:34.362Z,49.82
2023-05-13T14:13:35.986Z,43.88
2023-05-13T14:23:38.484Z,45.66
2023-05-13T14:33:39.851Z,39.45
2023-05-13T14:43:41.316Z,44.83
2023-05-13T14:53:42.871Z,41.05
2023-05-13T15:03:44.414Z,42.15
2023-05-13T15:13:45.884Z,46.96
2023-05-13T15:23:47.419Z,46.66
2023-05-13T15:33:48.759Z,48.50
2023-05-13T15:43:50.343Z,48.53
2023-05-13T15:53:52.865Z,50.90
2023-05-13T16:03:54.450Z,48.71
2023-05-13T16:13:55.995Z,47.32
2023-05-13T16:23:57.576Z,49.73
2023-05-13T16:33:59.048Z,44.26
2023-05-13T16:44:00.560Z,49.35
2023-05-13T16:54:02.046Z,50.25
2023-05-13T17:04:03.593Z,51.03
2023-05-13T17:14:05.943Z,49.25
2023-05-13T17:24:07.545Z,51.46
2023-05-13T17:34:09.203Z,54.42
2023-05-13T17:44:10.658Z,53.82
2023-05-13T17:54:12.073Z,42.43
2023-05-13T18:04:13.554Z,41.73
2023-05-13T18:14:14.968Z,49.73
2023-05-13T18:24:16.478Z,49.45
2023-05-13T18:34:18.365Z,47.97
2023-05-13T18:44:19.942Z,51.34
2023-05-13T18:54:21.506Z,53.23
2023-05-13T19:04:23.196Z,53.97
2023-05-13T19:14:24.743Z,55.43
2023-05-13T19:24:26.252Z,58.14
2023-05-13T19:34:27.755Z,60.28
2023-05-13T19:44:29.533Z,60.65
2023-05-13T19:54:31.032Z,63.91
2023-05-13T20:04:32.609Z,64.88
2023-05-13T20:14:48.064Z,66.90
2023-05-13T20:24:51.039Z,68.61
2023-05-13T20:34:52.766Z,69.63
2023-05-13T20:44:54.242Z,70.48
2023-05-13T20:54:55.828Z,74.12
2023-05-13T21:04:57.187Z,75.66
2023-05-13T21:14:58.644Z,73.03
2023-05-13T21:25:00.018Z,75.60
2023-05-13T21:35:01.393Z,77.97
2023-05-13T21:45:03.534Z,76.01
2023-05-13T21:55:05.343Z,75.16
2023-05-13T22:05:06.992Z,74.55
2023-05-13T22:15:09.212Z,79.79
2023-05-13T22:25:10.654Z,79.67
2023-05-13T22:35:12.138Z,77.01
2023-05-13T22:45:13.588Z,79.51
2023-05-13T22:55:15.130Z,78.82
2023-05-13T23:05:16.691Z,76.94
2023-05-13T23:15:18.161Z,81.74
2023-05-13T23:25:19.728Z,81.64
2023-05-13T23:35:21.080Z,83.81
2023-05-13T23:45:22.464Z,82.66
2023-05-13T23:55:23.996Z,80.11
